sensor_id;sensor_type;location;lat;lon;timestamp;P1;durP1;ratioP1;P2;durP2;ratioP2
14584;SDS011;7379;51.506;11.876;2022-08-19T00:01:18;9.82;;;8.93;;
14584;SDS011;7379;51.506;11.876;2022-08-19T00:03:45;10.07;;;9.07;;
14584;SDS011;7379;51.506;11.876;2022-08-19T00:06:12;10.02;;;9.02;;
14584;SDS011;7379;51.506;11.876;2022-08-19T00:08:39;9.90;;;8.90;;
14584;SDS011;7379;51.506;11.876;2022-08-19T00:11:07;10.50;;;9.52;;
14584;SDS011;7379;51.506;11.876;2022-08-19T00:13:34;10.25;;;9.35;;
14584;SDS011;7379;51.506;11.876;2022-08-19T00:16:03;9.70;;;8.70;;
14584;SDS011;7379;51.506;11.876;2022-08-19T00:18:30;10.45;;;9.43;;
14584;SDS011;7379;51.506;11.876;2022-08-19T00:20:58;10.35;;;9.45;;
14584;SDS011;7379;51.506;11.876;2022-08-19T00:23:25;10.80;;;9.77;;
14584;SDS011;7379;51.506;11.876;2022-08-19T00:25:52;10.27;;;9.27;;
14584;SDS011;7379;51.506;11.876;2022-08-19T00:28:21;10.88;;;9.88;;
14584;SDS011;7379;51.506;11.876;2022-08-19T00:30:48;10.00;;;9.02;;
14584;SDS011;7379;51.506;11.876;2022-08-19T00:33:16;10.55;;;9.55;;
14584;SDS011;7379;51.506;11.876;2022-08-19T00:35:43;10.38;;;9.38;;
14584;SDS011;7379;51.506;11.876;2022-08-19T00:38:10;10.30;;;9.40;;
14584;SDS011;7379;51.506;11.876;2022-08-19T00:40:37;9.98;;;9.07;;
14584;SDS011;7379;51.506;11.876;2022-08-19T00:43:07;11.05;;;9.80;;
14584;SDS011;7379;51.506;11.876;2022-08-19T00:45:37;10.77;;;9.75;;
14584;SDS011;7379;51.506;11.876;2022-08-19T00:48:06;10.20;;;9.30;;
14584;SDS011;7379;51.506;11.876;2022-08-19T00:50:33;10.10;;;9.20;;
14584;SDS011;7379;51.506;11.876;2022-08-19T00:53:01;10.45;;;9.45;;
14584;SDS011;7379;51.506;11.876;2022-08-19T00:55:30;10.05;;;9.10;;
14584;SDS011;7379;51.506;11.876;2022-08-19T00:58:00;9.75;;;8.85;;
14584;SDS011;7379;51.506;11.876;2022-08-19T01:00:31;10.27;;;9.25;;
14584;SDS011;7379;51.506;11.876;2022-08-19T01:03:03;10.52;;;9.57;;
14584;SDS011;7379;51.506;11.876;2022-08-19T01:05:32;10.43;;;9.32;;
14584;SDS011;7379;51.506;11.876;2022-08-19T01:07:59;10.55;;;9.55;;
14584;SDS011;7379;51.506;11.876;2022-08-19T01:10:29;10.50;;;9.50;;
14584;SDS011;7379;51.506;11.876;2022-08-19T01:13:02;10.25;;;9.25;;
14584;SDS011;7379;51.506;11.876;2022-08-19T01:15:31;10.43;;;9.43;;
14584;SDS011;7379;51.506;11.876;2022-08-19T01:18:00;11.27;;;9.35;;
14584;SDS011;7379;51.506;11.876;2022-08-19T01:20:35;9.90;;;8.88;;
14584;SDS011;7379;51.506;11.876;2022-08-19T01:23:03;10.43;;;9.43;;
14584;SDS011;7379;51.506;11.876;2022-08-19T01:25:31;10.50;;;9.50;;
14584;SDS011;7379;51.506;11.876;2022-08-19T01:28:02;10.63;;;9.73;;
14584;SDS011;7379;51.506;11.876;2022-08-19T01:30:31;9.63;;;8.75;;
14584;SDS011;7379;51.506;11.876;2022-08-19T01:32:59;10.27;;;9.38;;
14584;SDS011;7379;51.506;11.876;2022-08-19T01:35:30;10.60;;;9.65;;
14584;SDS011;7379;51.506;11.876;2022-08-19T01:37:58;10.07;;;9.07;;
14584;SDS011;7379;51.506;11.876;2022-08-19T01:40:29;10.40;;;9.40;;
14584;SDS011;7379;51.506;11.876;2022-08-19T01:42:58;10.10;;;9.18;;
14584;SDS011;7379;51.506;11.876;2022-08-19T01:45:25;9.63;;;8.82;;
14584;SDS011;7379;51.506;11.876;2022-08-19T01:47:54;10.07;;;9.18;;
14584;SDS011;7379;51.506;11.876;2022-08-19T01:50:21;10.05;;;9.15;;
14584;SDS011;7379;51.506;11.876;2022-08-19T01:52:48;10.48;;;9.43;;
14584;SDS011;7379;51.506;11.876;2022-08-19T01:55:16;10.63;;;9.65;;
14584;SDS011;7379;51.506;11.876;2022-08-19T01:57:48;10.85;;;9.85;;
14584;SDS011;7379;51.506;11.876;2022-08-19T02:00:19;10.85;;;9.85;;
14584;SDS011;7379;51.506;11.876;2022-08-19T02:02:47;11.30;;;10.30;;
14584;SDS011;7379;51.506;11.876;2022-08-19T02:05:14;11.15;;;10.10;;
14584;SDS011;7379;51.506;11.876;2022-08-19T02:07:45;11.95;;;10.82;;
14584;SDS011;7379;51.506;11.876;2022-08-19T02:10:13;11.80;;;10.70;;
14584;SDS011;7379;51.506;11.876;2022-08-19T02:12:42;12.13;;;11.02;;
14584;SDS011;7379;51.506;11.876;2022-08-19T02:15:10;11.52;;;10.43;;
14584;SDS011;7379;51.506;11.876;2022-08-19T02:17:38;11.02;;;9.90;;
14584;SDS011;7379;51.506;11.876;2022-08-19T02:20:06;11.32;;;10.20;;
14584;SDS011;7379;51.506;11.876;2022-08-19T02:22:34;11.50;;;10.50;;
14584;SDS011;7379;51.506;11.876;2022-08-19T02:25:01;11.77;;;10.60;;
14584;SDS011;7379;51.506;11.876;2022-08-19T02:27:29;12.10;;;11.00;;
14584;SDS011;7379;51.506;11.876;2022-08-19T02:29:56;11.13;;;10.13;;
14584;SDS011;7379;51.506;11.876;2022-08-19T02:32:24;11.45;;;10.38;;
14584;SDS011;7379;51.506;11.876;2022-08-19T02:34:51;11.68;;;10.63;;
14584;SDS011;7379;51.506;11.876;2022-08-19T02:37:17;12.82;;;10.82;;
14584;SDS011;7379;51.506;11.876;2022-08-19T02:40:02;12.93;;;11.65;;
14584;SDS011;7379;51.506;11.876;2022-08-19T02:42:30;13.20;;;11.98;;
14584;SDS011;7379;51.506;11.876;2022-08-19T02:44:57;12.18;;;11.05;;
14584;SDS011;7379;51.506;11.876;2022-08-19T02:47:25;12.45;;;11.20;;
14584;SDS011;7379;51.506;11.876;2022-08-19T02:49:52;13.10;;;11.80;;
14584;SDS011;7379;51.506;11.876;2022-08-19T02:52:18;13.18;;;11.95;;
14584;SDS011;7379;51.506;11.876;2022-08-19T02:54:48;12.23;;;11.02;;
14584;SDS011;7379;51.506;11.876;2022-08-19T02:57:15;12.52;;;11.32;;
14584;SDS011;7379;51.506;11.876;2022-08-19T02:59:41;12.73;;;11.63;;
14584;SDS011;7379;51.506;11.876;2022-08-19T03:02:08;13.50;;;12.07;;
14584;SDS011;7379;51.506;11.876;2022-08-19T03:04:36;13.05;;;11.70;;
14584;SDS011;7379;51.506;11.876;2022-08-19T03:07:03;12.65;;;11.52;;
14584;SDS011;7379;51.506;11.876;2022-08-19T03:09:30;12.23;;;11.13;;
14584;SDS011;7379;51.506;11.876;2022-08-19T03:11:56;14.27;;;12.90;;
14584;SDS011;7379;51.506;11.876;2022-08-19T03:14:23;13.23;;;11.93;;
14584;SDS011;7379;51.506;11.876;2022-08-19T03:16:51;14.23;;;12.82;;
14584;SDS011;7379;51.506;11.876;2022-08-19T03:19:19;14.52;;;13.13;;
14584;SDS011;7379;51.506;11.876;2022-08-19T03:21:48;12.50;;;11.38;;
14584;SDS011;7379;51.506;11.876;2022-08-19T03:24:16;12.80;;;11.65;;
14584;SDS011;7379;51.506;11.876;2022-08-19T03:26:45;13.00;;;11.75;;
14584;SDS011;7379;51.506;11.876;2022-08-19T03:29:13;12.50;;;11.30;;
14584;SDS011;7379;51.506;11.876;2022-08-19T03:31:41;13.35;;;12.05;;
14584;SDS011;7379;51.506;11.876;2022-08-19T03:34:10;12.68;;;11.57;;
14584;SDS011;7379;51.506;11.876;2022-08-19T03:36:37;13.77;;;12.55;;
14584;SDS011;7379;51.506;11.876;2022-08-19T03:39:05;13.40;;;12.23;;
14584;SDS011;7379;51.506;11.876;2022-08-19T03:41:36;13.70;;;12.40;;
14584;SDS011;7379;51.506;11.876;2022-08-19T03:44:04;13.93;;;12.65;;
14584;SDS011;7379;51.506;11.876;2022-08-19T03:46:33;13.93;;;12.52;;
14584;SDS011;7379;51.506;11.876;2022-08-19T03:49:02;13.10;;;11.80;;
14584;SDS011;7379;51.506;11.876;2022-08-19T03:51:33;13.20;;;11.95;;
14584;SDS011;7379;51.506;11.876;2022-08-19T03:54:02;12.73;;;11.43;;
14584;SDS011;7379;51.506;11.876;2022-08-19T03:56:32;12.32;;;11.23;;
14584;SDS011;7379;51.506;11.876;2022-08-19T03:59:00;14.18;;;12.80;;
14584;SDS011;7379;51.506;11.876;2022-08-19T04:01:27;12.95;;;11.50;;
14584;SDS011;7379;51.506;11.876;2022-08-19T04:03:55;12.48;;;11.18;;
14584;SDS011;7379;51.506;11.876;2022-08-19T04:06:23;12.45;;;11.30;;
14584;SDS011;7379;51.506;11.876;2022-08-19T04:08:52;12.32;;;11.23;;
14584;SDS011;7379;51.506;11.876;2022-08-19T04:11:22;12.52;;;11.32;;
14584;SDS011;7379;51.506;11.876;2022-08-19T04:13:52;12.00;;;10.90;;
14584;SDS011;7379;51.506;11.876;2022-08-19T04:16:20;12.32;;;11.00;;
14584;SDS011;7379;51.506;11.876;2022-08-19T04:18:49;15.73;;;12.98;;
14584;SDS011;7379;51.506;11.876;2022-08-19T04:21:16;12.82;;;11.65;;
14584;SDS011;7379;51.506;11.876;2022-08-19T04:23:45;12.68;;;11.48;;
14584;SDS011;7379;51.506;11.876;2022-08-19T04:26:13;13.27;;;11.98;;
14584;SDS011;7379;51.506;11.876;2022-08-19T04:28:40;12.63;;;11.43;;
14584;SDS011;7379;51.506;11.876;2022-08-19T04:31:11;12.70;;;11.50;;
14584;SDS011;7379;51.506;11.876;2022-08-19T04:33:40;13.27;;;12.07;;
14584;SDS011;7379;51.506;11.876;2022-08-19T04:36:07;13.43;;;12.10;;
14584;SDS011;7379;51.506;11.876;2022-08-19T04:38:34;13.02;;;11.82;;
14584;SDS011;7379;51.506;11.876;2022-08-19T04:41:02;13.82;;;12.52;;
14584;SDS011;7379;51.506;11.876;2022-08-19T04:43:47;13.95;;;12.55;;
14584;SDS011;7379;51.506;11.876;2022-08-19T04:46:16;14.00;;;12.57;;
14584;SDS011;7379;51.506;11.876;2022-08-19T04:48:45;13.30;;;12.00;;
14584;SDS011;7379;51.506;11.876;2022-08-19T04:51:12;13.20;;;11.90;;
14584;SDS011;7379;51.506;11.876;2022-08-19T04:53:40;12.98;;;11.77;;
14584;SDS011;7379;51.506;11.876;2022-08-19T04:56:09;13.20;;;11.90;;
14584;SDS011;7379;51.506;11.876;2022-08-19T04:58:37;13.90;;;12.38;;
14584;SDS011;7379;51.506;11.876;2022-08-19T05:01:06;14.32;;;11.60;;
14584;SDS011;7379;51.506;11.876;2022-08-19T05:03:35;12.82;;;11.52;;
14584;SDS011;7379;51.506;11.876;2022-08-19T05:06:04;14.02;;;12.50;;
14584;SDS011;7379;51.506;11.876;2022-08-19T05:08:32;12.52;;;11.25;;
14584;SDS011;7379;51.506;11.876;2022-08-19T05:11:00;13.45;;;12.02;;
14584;SDS011;7379;51.506;11.876;2022-08-19T05:13:27;13.27;;;11.75;;
14584;SDS011;7379;51.506;11.876;2022-08-19T05:15:55;12.32;;;11.20;;
14584;SDS011;7379;51.506;11.876;2022-08-19T05:18:22;12.73;;;11.55;;
14584;SDS011;7379;51.506;11.876;2022-08-19T05:21:08;12.45;;;11.25;;
14584;SDS011;7379;51.506;11.876;2022-08-19T05:23:53;12.50;;;11.40;;
14584;SDS011;7379;51.506;11.876;2022-08-19T05:26:20;13.20;;;11.90;;
14584;SDS011;7379;51.506;11.876;2022-08-19T05:28:47;12.23;;;11.00;;
14584;SDS011;7379;51.506;11.876;2022-08-19T05:31:14;12.27;;;11.07;;
14584;SDS011;7379;51.506;11.876;2022-08-19T05:33:41;12.15;;;10.88;;
14584;SDS011;7379;51.506;11.876;2022-08-19T05:36:09;11.93;;;10.82;;
14584;SDS011;7379;51.506;11.876;2022-08-19T05:38:36;12.38;;;11.13;;
14584;SDS011;7379;51.506;11.876;2022-08-19T05:41:05;11.40;;;10.30;;
14584;SDS011;7379;51.506;11.876;2022-08-19T05:43:33;10.82;;;9.77;;
14584;SDS011;7379;51.506;11.876;2022-08-19T05:46:00;12.98;;;10.55;;
14584;SDS011;7379;51.506;11.876;2022-08-19T05:48:27;10.98;;;9.95;;
14584;SDS011;7379;51.506;11.876;2022-08-19T05:50:55;11.18;;;10.10;;
14584;SDS011;7379;51.506;11.876;2022-08-19T05:53:23;10.90;;;9.80;;
14584;SDS011;7379;51.506;11.876;2022-08-19T05:55:50;11.48;;;10.10;;
14584;SDS011;7379;51.506;11.876;2022-08-19T05:58:17;10.57;;;9.60;;
14584;SDS011;7379;51.506;11.876;2022-08-19T06:00:43;11.63;;;10.52;;
14584;SDS011;7379;51.506;11.876;2022-08-19T06:03:10;10.55;;;9.45;;
14584;SDS011;7379;51.506;11.876;2022-08-19T06:05:37;10.40;;;9.40;;
14584;SDS011;7379;51.506;11.876;2022-08-19T06:08:04;10.23;;;9.23;;
14584;SDS011;7379;51.506;11.876;2022-08-19T06:10:33;10.32;;;9.32;;
14584;SDS011;7379;51.506;11.876;2022-08-19T06:13:01;9.90;;;8.90;;
14584;SDS011;7379;51.506;11.876;2022-08-19T06:15:29;9.13;;;8.23;;
14584;SDS011;7379;51.506;11.876;2022-08-19T06:17:56;8.82;;;8.00;;
14584;SDS011;7379;51.506;11.876;2022-08-19T06:20:23;10.02;;;8.95;;
14584;SDS011;7379;51.506;11.876;2022-08-19T06:22:49;9.18;;;8.27;;
14584;SDS011;7379;51.506;11.876;2022-08-19T06:25:16;8.18;;;7.38;;
14584;SDS011;7379;51.506;11.876;2022-08-19T06:27:45;8.80;;;7.82;;
14584;SDS011;7379;51.506;11.876;2022-08-19T06:30:12;8.60;;;7.80;;
14584;SDS011;7379;51.506;11.876;2022-08-19T06:32:39;9.15;;;7.85;;
14584;SDS011;7379;51.506;11.876;2022-08-19T06:35:07;8.50;;;7.60;;
14584;SDS011;7379;51.506;11.876;2022-08-19T06:37:34;8.57;;;7.75;;
14584;SDS011;7379;51.506;11.876;2022-08-19T06:40:02;8.70;;;7.80;;
14584;SDS011;7379;51.506;11.876;2022-08-19T06:42:30;8.63;;;7.65;;
14584;SDS011;7379;51.506;11.876;2022-08-19T06:44:59;8.07;;;7.22;;
14584;SDS011;7379;51.506;11.876;2022-08-19T06:47:28;8.70;;;7.80;;
14584;SDS011;7379;51.506;11.876;2022-08-19T06:49:56;8.95;;;8.05;;
14584;SDS011;7379;51.506;11.876;2022-08-19T06:52:28;9.50;;;8.40;;
14584;SDS011;7379;51.506;11.876;2022-08-19T06:54:54;9.02;;;8.13;;
14584;SDS011;7379;51.506;11.876;2022-08-19T06:57:22;8.95;;;8.05;;
14584;SDS011;7379;51.506;11.876;2022-08-19T06:59:49;8.90;;;7.75;;
14584;SDS011;7379;51.506;11.876;2022-08-19T07:02:18;7.97;;;7.22;;
14584;SDS011;7379;51.506;11.876;2022-08-19T07:04:45;7.93;;;7.13;;
14584;SDS011;7379;51.506;11.876;2022-08-19T07:07:13;8.55;;;7.07;;
14584;SDS011;7379;51.506;11.876;2022-08-19T07:09:41;8.23;;;7.43;;
14584;SDS011;7379;51.506;11.876;2022-08-19T07:12:10;9.50;;;7.57;;
14584;SDS011;7379;51.506;11.876;2022-08-19T07:14:40;8.52;;;7.55;;
14584;SDS011;7379;51.506;11.876;2022-08-19T07:17:09;8.35;;;7.55;;
14584;SDS011;7379;51.506;11.876;2022-08-19T07:19:38;8.10;;;7.30;;
14584;SDS011;7379;51.506;11.876;2022-08-19T07:22:06;8.18;;;7.35;;
14584;SDS011;7379;51.506;11.876;2022-08-19T07:24:33;8.23;;;7.20;;
14584;SDS011;7379;51.506;11.876;2022-08-19T07:27:01;7.85;;;7.03;;
14584;SDS011;7379;51.506;11.876;2022-08-19T07:29:30;8.18;;;7.13;;
14584;SDS011;7379;51.506;11.876;2022-08-19T07:31:58;7.35;;;6.65;;
14584;SDS011;7379;51.506;11.876;2022-08-19T07:34:27;7.88;;;6.95;;
14584;SDS011;7379;51.506;11.876;2022-08-19T07:36:56;8.00;;;7.20;;
14584;SDS011;7379;51.506;11.876;2022-08-19T07:39:24;7.82;;;7.13;;
14584;SDS011;7379;51.506;11.876;2022-08-19T07:41:54;8.23;;;6.93;;
14584;SDS011;7379;51.506;11.876;2022-08-19T07:44:22;7.07;;;6.38;;
14584;SDS011;7379;51.506;11.876;2022-08-19T07:46:54;7.63;;;6.88;;
14584;SDS011;7379;51.506;11.876;2022-08-19T07:49:24;7.88;;;7.00;;
14584;SDS011;7379;51.506;11.876;2022-08-19T07:51:53;7.82;;;7.13;;
14584;SDS011;7379;51.506;11.876;2022-08-19T07:54:22;7.75;;;6.70;;
14584;SDS011;7379;51.506;11.876;2022-08-19T07:56:52;7.43;;;6.68;;
14584;SDS011;7379;51.506;11.876;2022-08-19T07:59:19;8.15;;;6.72;;
14584;SDS011;7379;51.506;11.876;2022-08-19T08:01:47;7.88;;;7.07;;
14584;SDS011;7379;51.506;11.876;2022-08-19T08:04:15;9.52;;;7.15;;
14584;SDS011;7379;51.506;11.876;2022-08-19T08:06:59;8.25;;;6.88;;
14584;SDS011;7379;51.506;11.876;2022-08-19T08:09:44;7.40;;;6.65;;
14584;SDS011;7379;51.506;11.876;2022-08-19T08:12:13;7.57;;;6.80;;
14584;SDS011;7379;51.506;11.876;2022-08-19T08:14:42;7.55;;;6.85;;
14584;SDS011;7379;51.506;11.876;2022-08-19T08:17:11;7.70;;;7.00;;
14584;SDS011;7379;51.506;11.876;2022-08-19T08:19:39;7.75;;;6.82;;
14584;SDS011;7379;51.506;11.876;2022-08-19T08:22:07;7.30;;;6.60;;
14584;SDS011;7379;51.506;11.876;2022-08-19T08:24:57;7.57;;;6.82;;
14584;SDS011;7379;51.506;11.876;2022-08-19T08:27:27;7.60;;;6.68;;
14584;SDS011;7379;51.506;11.876;2022-08-19T08:29:54;7.22;;;6.50;;
14584;SDS011;7379;51.506;11.876;2022-08-19T08:32:21;7.18;;;6.47;;
14584;SDS011;7379;51.506;11.876;2022-08-19T08:34:48;7.05;;;6.35;;
14584;SDS011;7379;51.506;11.876;2022-08-19T08:37:15;7.72;;;6.53;;
14584;SDS011;7379;51.506;11.876;2022-08-19T08:39:41;7.63;;;6.65;;
14584;SDS011;7379;51.506;11.876;2022-08-19T08:42:11;6.90;;;6.20;;
14584;SDS011;7379;51.506;11.876;2022-08-19T08:44:47;8.15;;;6.40;;
14584;SDS011;7379;51.506;11.876;2022-08-19T08:47:18;7.13;;;6.40;;
14584;SDS011;7379;51.506;11.876;2022-08-19T08:49:48;6.85;;;6.20;;
14584;SDS011;7379;51.506;11.876;2022-08-19T08:52:18;6.68;;;5.97;;
14584;SDS011;7379;51.506;11.876;2022-08-19T08:54:48;7.53;;;6.05;;
14584;SDS011;7379;51.506;11.876;2022-08-19T08:57:20;7.07;;;6.38;;
14584;SDS011;7379;51.506;11.876;2022-08-19T08:59:52;7.25;;;6.30;;
14584;SDS011;7379;51.506;11.876;2022-08-19T09:02:23;6.80;;;6.10;;
14584;SDS011;7379;51.506;11.876;2022-08-19T09:04:51;7.43;;;6.60;;
14584;SDS011;7379;51.506;11.876;2022-08-19T09:07:22;6.40;;;5.80;;
14584;SDS011;7379;51.506;11.876;2022-08-19T09:09:58;6.40;;;5.80;;
14584;SDS011;7379;51.506;11.876;2022-08-19T09:12:35;7.10;;;6.40;;
14584;SDS011;7379;51.506;11.876;2022-08-19T09:15:09;7.45;;;5.85;;
14584;SDS011;7379;51.506;11.876;2022-08-19T09:17:38;6.78;;;6.07;;
14584;SDS011;7379;51.506;11.876;2022-08-19T09:20:06;6.47;;;5.88;;
14584;SDS011;7379;51.506;11.876;2022-08-19T09:22:46;6.15;;;5.57;;
14584;SDS011;7379;51.506;11.876;2022-08-19T09:25:14;7.45;;;6.30;;
14584;SDS011;7379;51.506;11.876;2022-08-19T09:27:44;7.05;;;6.35;;
14584;SDS011;7379;51.506;11.876;2022-08-19T09:30:13;7.18;;;6.47;;
14584;SDS011;7379;51.506;11.876;2022-08-19T09:32:41;7.18;;;6.22;;
14584;SDS011;7379;51.506;11.876;2022-08-19T09:35:09;9.43;;;6.55;;
14584;SDS011;7379;51.506;11.876;2022-08-19T09:37:36;7.05;;;6.05;;
14584;SDS011;7379;51.506;11.876;2022-08-19T09:40:03;6.70;;;6.03;;
14584;SDS011;7379;51.506;11.876;2022-08-19T09:42:31;7.45;;;6.70;;
14584;SDS011;7379;51.506;11.876;2022-08-19T09:45:00;6.97;;;6.20;;
14584;SDS011;7379;51.506;11.876;2022-08-19T09:47:27;7.40;;;6.22;;
14584;SDS011;7379;51.506;11.876;2022-08-19T09:49:54;7.10;;;6.40;;
14584;SDS011;7379;51.506;11.876;2022-08-19T09:52:21;6.60;;;6.00;;
14584;SDS011;7379;51.506;11.876;2022-08-19T09:54:47;7.68;;;6.43;;
14584;SDS011;7379;51.506;11.876;2022-08-19T09:57:18;7.15;;;6.45;;
14584;SDS011;7379;51.506;11.876;2022-08-19T09:59:45;8.52;;;6.68;;
14584;SDS011;7379;51.506;11.876;2022-08-19T10:02:14;7.22;;;6.35;;
14584;SDS011;7379;51.506;11.876;2022-08-19T10:04:40;7.13;;;6.43;;
14584;SDS011;7379;51.506;11.876;2022-08-19T10:07:24;6.97;;;6.28;;
14584;SDS011;7379;51.506;11.876;2022-08-19T10:09:51;7.53;;;6.75;;
14584;SDS011;7379;51.506;11.876;2022-08-19T10:12:19;7.78;;;7.07;;
14584;SDS011;7379;51.506;11.876;2022-08-19T10:14:45;8.77;;;7.38;;
14584;SDS011;7379;51.506;11.876;2022-08-19T10:17:14;9.20;;;7.10;;
14584;SDS011;7379;51.506;11.876;2022-08-19T10:19:41;7.93;;;7.13;;
14584;SDS011;7379;51.506;11.876;2022-08-19T10:22:07;8.13;;;7.32;;
14584;SDS011;7379;51.506;11.876;2022-08-19T10:24:36;7.68;;;6.97;;
14584;SDS011;7379;51.506;11.876;2022-08-19T10:27:03;7.45;;;6.75;;
14584;SDS011;7379;51.506;11.876;2022-08-19T10:29:30;7.40;;;6.78;;
14584;SDS011;7379;51.506;11.876;2022-08-19T10:31:59;7.72;;;7.03;;
14584;SDS011;7379;51.506;11.876;2022-08-19T10:34:28;7.88;;;6.70;;
14584;SDS011;7379;51.506;11.876;2022-08-19T10:36:56;7.72;;;6.93;;
14584;SDS011;7379;51.506;11.876;2022-08-19T10:39:25;7.47;;;6.78;;
14584;SDS011;7379;51.506;11.876;2022-08-19T10:41:53;7.38;;;6.68;;
14584;SDS011;7379;51.506;11.876;2022-08-19T10:44:21;7.78;;;6.20;;
14584;SDS011;7379;51.506;11.876;2022-08-19T10:46:48;6.40;;;5.80;;
14584;SDS011;7379;51.506;11.876;2022-08-19T10:49:15;7.28;;;6.15;;
14584;SDS011;7379;51.506;11.876;2022-08-19T10:51:45;6.68;;;6.07;;
14584;SDS011;7379;51.506;11.876;2022-08-19T10:54:29;7.05;;;6.40;;
14584;SDS011;7379;51.506;11.876;2022-08-19T10:57:10;6.90;;;6.13;;
14584;SDS011;7379;51.506;11.876;2022-08-19T10:59:37;8.82;;;6.80;;
14584;SDS011;7379;51.506;11.876;2022-08-19T11:02:05;7.47;;;6.70;;
14584;SDS011;7379;51.506;11.876;2022-08-19T11:04:34;8.38;;;7.43;;
14584;SDS011;7379;51.506;11.876;2022-08-19T11:07:03;7.80;;;7.00;;
14584;SDS011;7379;51.506;11.876;2022-08-19T11:09:31;9.90;;;8.27;;
14584;SDS011;7379;51.506;11.876;2022-08-19T11:12:03;8.45;;;7.57;;
14584;SDS011;7379;51.506;11.876;2022-08-19T11:14:31;8.85;;;7.97;;
14584;SDS011;7379;51.506;11.876;2022-08-19T11:16:59;8.27;;;7.40;;
14584;SDS011;7379;51.506;11.876;2022-08-19T11:19:26;8.43;;;7.72;;
14584;SDS011;7379;51.506;11.876;2022-08-19T11:21:52;8.32;;;7.25;;
14584;SDS011;7379;51.506;11.876;2022-08-19T11:24:21;8.02;;;7.22;;
14584;SDS011;7379;51.506;11.876;2022-08-19T11:26:50;8.38;;;7.57;;
14584;SDS011;7379;51.506;11.876;2022-08-19T11:29:18;8.20;;;7.50;;
14584;SDS011;7379;51.506;11.876;2022-08-19T11:31:47;8.68;;;7.90;;
14584;SDS011;7379;51.506;11.876;2022-08-19T11:34:16;9.05;;;8.15;;
14584;SDS011;7379;51.506;11.876;2022-08-19T11:36:44;8.55;;;7.78;;
14584;SDS011;7379;51.506;11.876;2022-08-19T11:39:13;9.75;;;8.75;;
14584;SDS011;7379;51.506;11.876;2022-08-19T11:41:43;10.10;;;9.07;;
14584;SDS011;7379;51.506;11.876;2022-08-19T11:44:10;9.45;;;8.55;;
14584;SDS011;7379;51.506;11.876;2022-08-19T11:46:39;9.60;;;8.70;;
14584;SDS011;7379;51.506;11.876;2022-08-19T11:49:10;9.40;;;8.48;;
14584;SDS011;7379;51.506;11.876;2022-08-19T11:51:37;10.68;;;9.13;;
14584;SDS011;7379;51.506;11.876;2022-08-19T11:54:04;12.10;;;10.07;;
14584;SDS011;7379;51.506;11.876;2022-08-19T11:56:32;10.90;;;9.80;;
14584;SDS011;7379;51.506;11.876;2022-08-19T11:59:00;11.48;;;10.10;;
14584;SDS011;7379;51.506;11.876;2022-08-19T12:01:27;11.55;;;9.18;;
14584;SDS011;7379;51.506;11.876;2022-08-19T12:03:55;9.57;;;8.57;;
14584;SDS011;7379;51.506;11.876;2022-08-19T12:06:23;10.20;;;9.25;;
14584;SDS011;7379;51.506;11.876;2022-08-19T12:08:53;10.80;;;9.77;;
14584;SDS011;7379;51.506;11.876;2022-08-19T12:11:21;9.80;;;8.90;;
14584;SDS011;7379;51.506;11.876;2022-08-19T12:13:49;10.60;;;9.60;;
14584;SDS011;7379;51.506;11.876;2022-08-19T12:16:18;11.20;;;9.90;;
14584;SDS011;7379;51.506;11.876;2022-08-19T12:18:47;9.18;;;8.35;;
14584;SDS011;7379;51.506;11.876;2022-08-19T12:21:16;10.90;;;9.75;;
14584;SDS011;7379;51.506;11.876;2022-08-19T12:23:46;9.57;;;8.73;;
14584;SDS011;7379;51.506;11.876;2022-08-19T12:26:14;9.80;;;8.80;;
14584;SDS011;7379;51.506;11.876;2022-08-19T12:28:41;10.45;;;9.50;;
14584;SDS011;7379;51.506;11.876;2022-08-19T12:31:08;10.45;;;9.45;;
14584;SDS011;7379;51.506;11.876;2022-08-19T12:33:38;9.60;;;8.73;;
14584;SDS011;7379;51.506;11.876;2022-08-19T12:36:06;9.20;;;8.40;;
14584;SDS011;7379;51.506;11.876;2022-08-19T12:38:35;10.15;;;9.15;;
14584;SDS011;7379;51.506;11.876;2022-08-19T12:41:02;10.15;;;9.15;;
14584;SDS011;7379;51.506;11.876;2022-08-19T12:43:31;11.02;;;9.60;;
14584;SDS011;7379;51.506;11.876;2022-08-19T12:45:59;10.40;;;9.48;;
14584;SDS011;7379;51.506;11.876;2022-08-19T12:48:26;11.25;;;9.63;;
14584;SDS011;7379;51.506;11.876;2022-08-19T12:50:55;10.75;;;9.75;;
14584;SDS011;7379;51.506;11.876;2022-08-19T12:53:22;10.70;;;9.65;;
14584;SDS011;7379;51.506;11.876;2022-08-19T12:55:54;10.27;;;9.38;;
14584;SDS011;7379;51.506;11.876;2022-08-19T12:58:21;12.10;;;10.70;;
14584;SDS011;7379;51.506;11.876;2022-08-19T13:00:49;12.15;;;10.82;;
14584;SDS011;7379;51.506;11.876;2022-08-19T13:03:16;11.57;;;10.45;;
14584;SDS011;7379;51.506;11.876;2022-08-19T13:05:43;11.13;;;10.05;;
14584;SDS011;7379;51.506;11.876;2022-08-19T13:08:11;11.77;;;10.23;;
14584;SDS011;7379;51.506;11.876;2022-08-19T13:10:38;13.20;;;11.90;;
14584;SDS011;7379;51.506;11.876;2022-08-19T13:13:05;12.55;;;11.40;;
14584;SDS011;7379;51.506;11.876;2022-08-19T13:15:35;16.02;;;11.82;;
14584;SDS011;7379;51.506;11.876;2022-08-19T13:18:04;12.00;;;10.77;;
14584;SDS011;7379;51.506;11.876;2022-08-19T13:20:32;12.50;;;11.30;;
14584;SDS011;7379;51.506;11.876;2022-08-19T13:23:00;12.60;;;11.38;;
14584;SDS011;7379;51.506;11.876;2022-08-19T13:25:28;12.48;;;11.30;;
14584;SDS011;7379;51.506;11.876;2022-08-19T13:27:55;12.80;;;11.60;;
14584;SDS011;7379;51.506;11.876;2022-08-19T13:30:22;13.30;;;12.00;;
14584;SDS011;7379;51.506;11.876;2022-08-19T13:33:07;12.60;;;11.40;;
14584;SDS011;7379;51.506;11.876;2022-08-19T13:35:40;13.80;;;12.38;;
14584;SDS011;7379;51.506;11.876;2022-08-19T13:38:08;13.40;;;12.02;;
14584;SDS011;7379;51.506;11.876;2022-08-19T13:40:37;13.80;;;12.43;;
14584;SDS011;7379;51.506;11.876;2022-08-19T13:43:04;13.60;;;12.30;;
14584;SDS011;7379;51.506;11.876;2022-08-19T13:45:32;13.10;;;11.85;;
14584;SDS011;7379;51.506;11.876;2022-08-19T13:48:00;12.73;;;11.43;;
14584;SDS011;7379;51.506;11.876;2022-08-19T13:50:31;12.80;;;11.50;;
14584;SDS011;7379;51.506;11.876;2022-08-19T13:52:59;12.20;;;10.95;;
14584;SDS011;7379;51.506;11.876;2022-08-19T13:55:27;13.10;;;11.80;;
14584;SDS011;7379;51.506;11.876;2022-08-19T13:57:55;12.70;;;11.50;;
14584;SDS011;7379;51.506;11.876;2022-08-19T14:00:25;11.80;;;10.60;;
14584;SDS011;7379;51.506;11.876;2022-08-19T14:02:53;12.75;;;11.55;;
14584;SDS011;7379;51.506;11.876;2022-08-19T14:05:22;12.05;;;10.95;;
14584;SDS011;7379;51.506;11.876;2022-08-19T14:07:50;12.13;;;10.98;;
14584;SDS011;7379;51.506;11.876;2022-08-19T14:10:17;11.35;;;10.45;;
14584;SDS011;7379;51.506;11.876;2022-08-19T14:12:44;11.70;;;10.60;;
14584;SDS011;7379;51.506;11.876;2022-08-19T14:15:14;11.68;;;10.68;;
14584;SDS011;7379;51.506;11.876;2022-08-19T14:17:42;11.98;;;10.88;;
14584;SDS011;7379;51.506;11.876;2022-08-19T14:20:11;12.23;;;11.02;;
14584;SDS011;7379;51.506;11.876;2022-08-19T14:22:41;12.73;;;10.90;;
14584;SDS011;7379;51.506;11.876;2022-08-19T14:25:10;11.52;;;10.52;;
14584;SDS011;7379;51.506;11.876;2022-08-19T14:27:40;11.63;;;10.52;;
14584;SDS011;7379;51.506;11.876;2022-08-19T14:30:08;11.77;;;10.70;;
14584;SDS011;7379;51.506;11.876;2022-08-19T14:32:38;11.30;;;10.20;;
14584;SDS011;7379;51.506;11.876;2022-08-19T14:35:05;11.55;;;10.45;;
14584;SDS011;7379;51.506;11.876;2022-08-19T14:37:33;11.43;;;10.43;;
14584;SDS011;7379;51.506;11.876;2022-08-19T14:40:10;10.70;;;9.80;;
14584;SDS011;7379;51.506;11.876;2022-08-19T14:42:38;11.20;;;10.18;;
14584;SDS011;7379;51.506;11.876;2022-08-19T14:45:05;11.10;;;10.10;;